createdAt,value
2019-04-01T00:08:51.924Z,3.0
2019-04-01T00:19:05.743Z,2.9
2019-04-01T00:29:17.023Z,2.7
2019-04-01T00:39:29.689Z,2.6
2019-04-01T00:49:43.574Z,2.4
2019-04-01T00:59:57.823Z,2.3
2019-04-01T01:10:10.166Z,2.2
2019-04-01T01:20:24.322Z,2.1
2019-04-01T01:30:38.175Z,2.0
2019-04-01T01:40:51.906Z,1.9
2019-04-01T01:52:06.880Z,1.7
2019-04-01T02:02:20.547Z,1.7
2019-04-01T02:12:34.862Z,1.7
2019-04-01T02:22:48.986Z,1.6
2019-04-01T02:33:02.566Z,1.4
2019-04-01T02:43:49.789Z,1.3
2019-04-01T02:54:01.545Z,1.3
2019-04-01T03:04:13.658Z,1.2
2019-04-01T03:14:59.555Z,1.0
2019-04-01T03:25:10.841Z,1.0
2019-04-01T03:35:57.422Z,0.9
2019-04-01T03:46:12.109Z,0.9
2019-04-01T03:57:01.786Z,0.8
2019-04-01T04:07:48.736Z,0.7
2019-04-01T04:18:40.127Z,0.6
2019-04-01T04:29:25.237Z,0.5
2019-04-01T04:40:11.887Z,0.5
2019-04-01T04:51:33.916Z,0.3
2019-04-01T05:01:45.920Z,0.3
2019-04-01T05:12:48.434Z,0.2
2019-04-01T05:23:00.866Z,0.2
2019-04-01T05:33:15.147Z,0.1
2019-04-01T05:44:02.123Z,0.0
2019-04-01T05:54:47.398Z,-0.1
2019-04-01T06:04:59.210Z,-0.1
2019-04-01T06:15:12.706Z,-0.1
2019-04-01T06:25:27.497Z,0.0
2019-04-01T06:35:41.421Z,0.0
2019-04-01T06:45:55.878Z,0.1
2019-04-01T06:56:41.350Z,0.4
2019-04-01T07:06:55.494Z,0.4
2019-04-01T07:17:42.561Z,0.9
2019-04-01T07:28:46.988Z,1.2
2019-04-01T07:39:35.678Z,2.1
2019-04-01T07:49:50.265Z,2.1
2019-04-01T08:00:55.099Z,7.5
2019-04-01T08:11:49.866Z,10.2
2019-04-01T08:22:43.335Z,12.8
2019-04-01T08:33:47.478Z,15.1
2019-04-01T08:43:58.478Z,15.1
2019-04-01T08:54:22.472Z,17.1
2019-04-01T09:05:20.073Z,20.1
2019-04-01T09:16:14.707Z,21.6
2019-04-01T09:26:32.974Z,21.6
2019-04-01T09:37:23.513Z,23.9
2019-04-01T09:47:38.035Z,23.9
2019-04-01T09:58:28.751Z,25.7
2019-04-01T10:08:43.653Z,25.7
2019-04-01T10:19:37.234Z,27.0
2019-04-01T10:30:26.357Z,27.7
2019-04-01T10:41:13.990Z,28.2
2019-04-01T10:52:08.702Z,28.5
2019-04-01T11:02:57.272Z,28.8
2019-04-01T11:13:15.225Z,28.8
2019-04-01T11:23:34.147Z,29.0
2019-04-01T11:34:25.034Z,29.4
2019-04-01T11:45:14.886Z,29.6
2019-04-01T11:55:34.547Z,29.6
2019-04-01T12:05:52.700Z,29.7
2019-04-01T12:16:09.024Z,29.7
2019-04-01T12:26:27.641Z,29.7
2019-04-01T12:37:16.431Z,29.3
2019-04-01T12:47:34.324Z,29.2
2019-04-01T12:58:25.199Z,28.4
2019-04-01T13:08:36.118Z,28.5
2019-04-01T13:21:26.631Z,27.7
2019-04-01T13:32:16.288Z,27.5
2019-04-01T13:43:07.239Z,27.4
2019-04-01T13:54:08.083Z,27.4
2019-04-01T14:04:17.189Z,27.3
2019-04-01T14:15:10.541Z,27.3
2019-04-01T14:42:21.401Z,27.3
2019-04-01T14:52:35.127Z,27.3
2019-04-01T15:03:27.830Z,27.2
2019-04-01T15:13:43.325Z,27.2
2019-04-01T15:24:34.425Z,26.7
2019-04-01T15:34:48.873Z,26.7
2019-04-01T15:45:03.243Z,26.3
2019-04-01T15:55:22.105Z,25.7
2019-04-01T16:06:07.452Z,24.3
2019-04-01T16:16:23.523Z,24.3
2019-04-01T16:27:13.283Z,22.6
2019-04-01T16:38:22.222Z,21.8
2019-04-01T16:49:11.550Z,20.9
2019-04-01T16:59:58.830Z,20.2
2019-04-01T17:10:48.990Z,19.4
2019-04-01T17:21:34.455Z,18.8
2019-04-01T17:32:30.747Z,18.2
2019-04-01T17:42:45.450Z,18.1
2019-04-01T17:53:38.136Z,16.9
2019-04-01T18:04:25.815Z,16.3
2019-04-01T18:16:01.361Z,15.7
2019-04-01T18:26:35.008Z,15.6
2019-04-01T18:39:48.097Z,14.4
2019-04-01T19:06:14.008Z,13.2
2019-04-01T19:18:32.356Z,12.7
2019-04-01T19:29:04.077Z,12.7
2019-04-01T19:40:20.520Z,12.2
2019-04-01T19:50:35.447Z,11.8
2019-04-01T20:00:49.380Z,11.4
2019-04-01T20:11:00.462Z,11.0
2019-04-01T20:21:54.431Z,10.4
2019-04-01T20:32:16.756Z,10.3
2019-04-01T20:42:57.667Z,9.8
2019-04-01T20:53:12.078Z,9.7
2019-04-01T21:03:26.249Z,9.5
2019-04-01T21:13:42.819Z,9.2
2019-04-01T21:23:59.813Z,8.9
2019-04-01T21:34:44.433Z,8.4
2019-04-01T21:44:58.934Z,8.5
2019-04-01T21:55:18.609Z,8.2
2019-04-01T22:06:03.699Z,7.9
2019-04-01T22:16:51.665Z,7.7
2019-04-01T22:27:39.307Z,7.6
2019-04-01T22:37:53.777Z,7.6
2019-04-01T22:48:07.663Z,7.4
2019-04-01T22:58:22.605Z,7.3
2019-04-01T23:08:36.262Z,7.2
2019-04-01T23:19:24.377Z,6.9
2019-04-01T23:29:39.556Z,6.9
2019-04-01T23:39:53.809Z,6.8
2019-04-01T23:50:09.040Z,6.7
